Terminal Aerodrome Forecast
Issued by NWS

Home | Current Version | Previous Version | Text Only | Print | Product List | Glossary On
Versions: 1 2 3 4 5 6 7 8 9 10 11 12 13 14 15 16
000
FTAK31 PAJN 220528
TAFAYA
TAF
PAYA 220528Z 2206/2306 VRB03KT P6SM FEW050
     FM221500 00000KT P6SM OVC050
     FM222100 10006KT P6SM VCSH SCT015 OVC050
     FM230000 11004KT 3SM -SHSN BKN015 OVC030
      AMD LTD TO CLD VIS AND WIND 2206/2209=

USA.gov is the U.S. government's official web portal to all federal, state and local government web resources and services.